Time;durP1;ratioP1;P1;durP2;ratioP2;P2;SDS_P1;SDS_P2;PMS_P1;PMS_P2;Temp;Humidity;BMP_temperature;BMP_pressure;BME280_temperature;BME280_humidity;BME280_pressure;Samples;Min_cycle;Max_cycle;Signal;HPM_P1;HPM_P2
2023/09/11 00:01:38;;;;;;;6.53;1.90;;;;;;;18.78;100.00;98387.34;15258303;19;20283;-47
2023/09/11 00:07:05;;;;;;;2.55;1.90;;;;;;;18.72;100.00;98384.63;15261878;19;20799;-48
2023/09/11 00:12:30;;;;;;;3.47;1.80;;;;;;;18.64;100.00;98377.53;15255986;19;20015;-47
2023/09/11 00:17:54;;;;;;;3.15;1.90;;;;;;;18.50;100.00;98384.91;15265161;19;20036;-51
2023/09/11 00:23:22;;;;;;;3.08;1.90;;;;;;;18.33;100.00;98381.81;15255443;19;20049;-50
2023/09/11 00:28:46;;;;;;;5.32;1.92;;;;;;;18.26;100.00;98368.19;15266917;19;20082;-47
2023/09/11 00:34:10;;;;;;;6.95;1.90;;;;;;;18.22;100.00;98360.66;15265381;19;20022;-47
2023/09/11 00:39:38;;;;;;;3.92;1.90;;;;;;;18.13;100.00;98362.75;15266189;19;20023;-47
2023/09/11 00:45:02;;;;;;;3.25;1.80;;;;;;;18.06;100.00;98356.47;15266758;19;20016;-47
2023/09/11 00:50:28;;;;;;;5.82;2.15;;;;;;;17.95;100.00;98357.91;15269854;19;20632;-51
2023/09/11 00:55:56;;;;;;;3.65;2.00;;;;;;;17.90;100.00;98352.28;15275620;19;20025;-49
2023/09/11 01:01:21;;;;;;;5.18;1.98;;;;;;;17.85;100.00;98351.00;15276884;19;20022;-47
2023/09/11 01:06:46;;;;;;;5.93;2.17;;;;;;;17.81;100.00;98348.91;15280756;19;20025;-52
2023/09/11 01:12:14;;;;;;;7.47;2.25;;;;;;;17.76;100.00;98346.81;15274593;19;20507;-49
2023/09/11 01:17:46;;;;;;;4.22;2.30;;;;;;;17.74;100.00;98338.00;15276084;19;20088;-49
2023/09/11 01:23:40;;;;;;;2.38;1.85;;;;;;;17.69;100.00;98346.00;15267113;19;20377;-51
2023/09/11 01:29:14;;;;;;;3.95;1.90;;;;;;;17.59;100.00;98340.94;15277096;19;20024;-50
2023/09/11 01:34:39;;;;;;;5.50;1.90;;;;;;;17.48;100.00;98345.13;15277300;19;20019;-48
2023/09/11 01:40:05;;;;;;;4.65;1.80;;;;;;;17.38;100.00;98341.97;15275058;19;20022;-49
2023/09/11 01:45:34;;;;;;;3.50;2.10;;;;;;;17.24;100.00;98333.78;15277422;19;20011;-51
2023/09/11 01:50:59;;;;;;;2.78;1.90;;;;;;;17.13;100.00;98330.84;15274154;19;20423;-49
2023/09/11 01:56:25;;;;;;;4.45;2.17;;;;;;;16.99;100.00;98336.25;15263159;19;20401;-49
2023/09/11 02:01:52;;;;;;;3.70;2.03;;;;;;;16.96;100.00;98325.75;15269608;19;20015;-51
2023/09/11 02:07:17;;;;;;;5.43;2.22;;;;;;;16.94;100.00;98333.28;15277706;19;20019;-52
2023/09/11 02:12:42;;;;;;;4.65;2.15;;;;;;;16.93;100.00;98329.69;15269897;19;20363;-48
2023/09/11 02:18:09;;;;;;;4.32;2.00;;;;;;;16.91;100.00;98329.06;15270971;19;20018;-49
2023/09/11 02:23:34;;;;;;;3.60;2.25;;;;;;;16.87;100.00;98329.69;15270845;19;20017;-48
2023/09/11 02:28:59;;;;;;;4.03;2.10;;;;;;;16.81;100.00;98317.72;15262840;19;20554;-49
2023/09/11 02:34:27;;;;;;;2.60;2.00;;;;;;;16.77;100.00;98320.03;15273363;19;20105;-48
2023/09/11 02:39:53;;;;;;;3.05;2.05;;;;;;;16.74;100.00;98322.31;15273074;19;20081;-50
2023/09/11 02:45:18;;;;;;;2.95;2.08;;;;;;;16.71;100.00;98322.72;15272345;19;20081;-49
2023/09/11 02:50:45;;;;;;;3.88;2.10;;;;;;;16.67;100.00;98326.88;15268042;19;20022;-50
2023/09/11 02:56:10;;;;;;;3.60;2.30;;;;;;;16.60;100.00;98333.16;15266703;19;20057;-52
2023/09/11 03:01:35;;;;;;;6.25;2.22;;;;;;;16.54;100.00;98328.50;15254034;19;20065;-49
2023/09/11 03:07:03;;;;;;;3.35;2.05;;;;;;;16.48;100.00;98327.44;15271767;19;20018;-50
2023/09/11 03:12:27;;;;;;;5.18;2.33;;;;;;;16.41;100.00;98320.28;15262407;19;20023;-51
2023/09/11 03:17:52;;;;;;;2.92;2.03;;;;;;;16.31;100.00;98307.06;15266409;19;20027;-47
2023/09/11 03:23:21;;;;;;;5.10;2.25;;;;;;;16.22;100.00;98319.16;15264435;19;20021;-49
2023/09/11 03:28:50;;;;;;;3.85;2.30;;;;;;;16.16;100.00;98310.75;15267798;19;20478;-48
2023/09/11 03:34:14;;;;;;;5.05;2.20;;;;;;;16.11;100.00;98315.94;15256573;19;20030;-51
2023/09/11 03:39:42;;;;;;;3.35;2.45;;;;;;;16.10;100.00;98311.56;15266283;19;20026;-48
2023/09/11 03:45:08;;;;;;;4.72;2.50;;;;;;;16.06;100.00;98309.41;15264307;19;20039;-48
2023/09/11 03:50:34;;;;;;;3.40;2.47;;;;;;;16.02;100.00;98315.28;15265213;19;20027;-48
2023/09/11 03:56:02;;;;;;;4.15;2.30;;;;;;;15.98;100.00;98305.84;15266188;19;20011;-48
2023/09/11 04:01:29;;;;;;;2.85;2.22;;;;;;;15.95;100.00;98303.50;15261741;19;20018;-48
2023/09/11 04:06:53;;;;;;;5.82;2.50;;;;;;;15.92;100.00;98303.94;15251919;19;20475;-50
2023/09/11 04:12:20;;;;;;;3.38;2.50;;;;;;;15.89;100.00;98298.88;15262859;19;20021;-48
2023/09/11 04:17:46;;;;;;;5.53;2.55;;;;;;;15.81;100.00;98304.44;15264354;19;20098;-49
2023/09/11 04:23:11;;;;;;;3.63;2.50;;;;;;;15.78;100.00;98304.84;15262966;19;20042;-49
2023/09/11 04:28:39;;;;;;;4.72;2.30;;;;;;;15.72;100.00;98298.31;15278209;19;20030;-51
2023/09/11 04:34:04;;;;;;;3.83;2.40;;;;;;;15.68;100.00;98303.31;15276296;19;20033;-51
2023/09/11 04:39:31;;;;;;;3.72;2.40;;;;;;;15.64;100.00;98306.63;15259480;19;20106;-84
2023/09/11 04:44:59;;;;;;;2.85;2.47;;;;;;;15.57;100.00;98306.56;15285998;19;20931;-84
2023/09/11 04:50:24;;;;;;;2.85;2.40;;;;;;;15.49;100.00;98306.69;15291494;19;20474;-83
2023/09/11 04:55:49;;;;;;;5.05;2.53;;;;;;;15.47;100.00;98301.47;15285587;19;20019;-84
2023/09/11 05:01:17;;;;;;;4.57;2.70;;;;;;;15.41;100.00;98303.09;15284461;19;20030;-83
2023/09/11 05:06:42;;;;;;;6.15;2.55;;;;;;;15.38;100.00;98297.22;15288812;19;20021;-84
2023/09/11 05:12:08;;;;;;;3.75;2.60;;;;;;;15.33;100.00;98300.50;15275686;19;20540;-84
2023/09/11 05:17:35;;;;;;;7.38;2.90;;;;;;;15.30;100.00;98298.19;15285172;19;20011;-84
2023/09/11 05:23:00;;;;;;;3.53;2.60;;;;;;;15.28;100.00;98302.13;15287318;19;20018;-84
2023/09/11 05:28:25;;;;;;;2.90;2.58;;;;;;;15.27;100.00;98311.31;15289689;19;20018;-81
2023/09/11 05:33:52;;;;;;;3.20;2.67;;;;;;;15.27;100.00;98311.31;15285873;19;20488;-84
2023/09/11 05:39:17;;;;;;;3.15;2.47;;;;;;;15.29;100.00;98325.53;15285734;19;20742;-82
2023/09/11 05:44:48;;;;;;;6.93;2.78;;;;;;;15.30;100.00;98335.31;15274585;19;20027;-83
2023/09/11 05:50:17;;;;;;;3.72;2.70;;;;;;;15.32;100.00;98325.97;15286052;19;20032;-84
2023/09/11 05:55:43;;;;;;;4.85;2.80;;;;;;;15.37;100.00;98318.06;15294905;19;20014;-85
2023/09/11 06:01:08;;;;;;;4.03;2.50;;;;;;;15.44;100.00;98323.56;15291316;19;20029;-84
2023/09/11 06:06:36;;;;;;;3.60;2.60;;;;;;;15.52;100.00;98325.31;15293133;19;20093;-84
2023/09/11 06:12:01;;;;;;;4.30;2.42;;;;;;;15.61;100.00;98334.97;15291613;19;20022;-83
2023/09/11 06:17:25;;;;;;;3.30;2.78;;;;;;;15.69;100.00;98326.72;15273028;19;20083;-84
2023/09/11 06:23:05;;;;;;;4.28;2.67;;;;;;;15.82;100.00;98335.97;15278981;19;20077;-83
2023/09/11 06:28:29;;;;;;;5.47;2.80;;;;;;;15.91;100.00;98334.84;15283932;19;20006;-83
2023/09/11 06:33:54;;;;;;;6.20;2.80;;;;;;;16.05;100.00;98333.03;15279061;19;20010;-83
2023/09/11 06:39:21;;;;;;;3.20;2.60;;;;;;;16.16;100.00;98332.50;15272568;19;20014;-84
2023/09/11 06:44:52;;;;;;;3.47;2.53;;;;;;;16.30;100.00;98319.81;15273036;19;20010;-84
2023/09/11 06:50:17;;;;;;;3.08;2.42;;;;;;;16.44;100.00;98328.88;15274415;19;20486;-84
2023/09/11 06:55:44;;;;;;;7.15;2.90;;;;;;;16.56;100.00;98326.41;15284618;19;20019;-85
2023/09/11 07:01:10;;;;;;;9.45;2.90;;;;;;;16.68;100.00;98323.13;15279838;19;20518;-85
2023/09/11 07:06:34;;;;;;;7.28;2.83;;;;;;;16.81;100.00;98325.88;15282416;19;20017;-84
2023/09/11 07:12:01;;;;;;;6.25;2.75;;;;;;;16.97;100.00;98326.59;15279307;19;20793;-83
2023/09/11 07:17:26;;;;;;;6.35;2.67;;;;;;;17.08;100.00;98323.28;15278613;19;20033;-83
2023/09/11 07:22:52;;;;;;;5.00;2.50;;;;;;;17.23;100.00;98313.03;15278408;19;20030;-84
2023/09/11 07:28:24;;;;;;;6.35;2.88;;;;;;;17.39;100.00;98308.25;15283615;19;20011;-82
2023/09/11 07:33:49;;;;;;;4.43;2.75;;;;;;;17.55;100.00;98307.84;15275774;19;20075;-82
2023/09/11 07:39:13;;;;;;;5.22;2.80;;;;;;;17.75;100.00;98308.91;15272529;19;20086;-85
2023/09/11 07:44:47;;;;;;;6.85;2.92;;;;;;;17.89;100.00;98302.34;15271958;19;20527;-84
2023/09/11 07:50:12;;;;;;;4.70;2.75;;;;;;;18.08;100.00;98295.22;15270196;19;20006;-85
2023/09/11 07:55:37;;;;;;;7.40;2.80;;;;;;;18.27;100.00;98295.41;15276437;19;20025;-84
2023/09/11 08:01:05;;;;;;;3.63;2.90;;;;;;;18.43;100.00;98294.91;15286271;19;20026;-84
2023/09/11 08:06:30;;;;;;;6.40;2.80;;;;;;;18.62;100.00;98281.44;15291055;19;20348;-83
2023/09/11 08:11:55;;;;;;;5.95;2.60;;;;;;;18.82;100.00;98284.03;15297151;19;20078;-85
2023/09/11 08:17:22;;;;;;;3.88;2.60;;;;;;;19.08;100.00;98283.09;15288895;19;20503;-84
2023/09/11 08:22:47;;;;;;;8.02;2.70;;;;;;;19.33;100.00;98276.84;15280673;19;20043;-82
2023/09/11 08:28:12;;;;;;;7.75;2.80;;;;;;;19.53;100.00;98281.28;15290822;19;20039;-83
2023/09/11 08:33:40;;;;;;;7.13;2.50;;;;;;;19.85;100.00;98276.59;15287564;19;20034;-85
2023/09/11 08:39:12;;;;;;;6.70;2.50;;;;;;;20.08;100.00;98279.75;15289637;19;20034;-85
2023/09/11 08:44:43;;;;;;;7.88;2.65;;;;;;;20.36;100.00;98270.19;15281484;19;20016;-84
2023/09/11 08:50:13;;;;;;;10.40;2.58;;;;;;;20.61;100.00;98273.66;15309536;19;20010;-86
2023/09/11 08:55:39;;;;;;;10.00;2.80;;;;;;;20.91;100.00;98270.13;15358656;19;20003;-86
2023/09/11 09:01:05;;;;;;;10.52;2.33;;;;;;;21.18;100.00;98271.63;15364335;19;19994;-85
2023/09/11 09:06:42;;;;;;;16.42;2.70;;;;;;;21.43;100.00;98274.19;15321636;19;20014;-84
2023/09/11 09:12:08;;;;;;;7.93;2.00;;;;;;;21.67;100.00;98268.78;15286995;19;20039;-53
2023/09/11 09:17:32;;;;;;;10.35;2.17;;;;;;;21.90;100.00;98259.72;15274076;19;20018;-50
2023/09/11 09:23:02;;;;;;;4.90;2.03;;;;;;;22.07;100.00;98248.84;15272544;19;20014;-49
2023/09/11 09:28:36;;;;;;;4.85;1.88;;;;;;;22.30;100.00;98244.38;15268293;19;20024;-51
2023/09/11 09:34:01;;;;;;;12.10;2.13;;;;;;;22.61;100.00;98250.53;15269105;19;20090;-51
2023/09/11 09:39:33;;;;;;;9.82;1.98;;;;;;;22.84;100.00;98237.81;15271946;19;20593;-51
2023/09/11 09:44:58;;;;;;;7.85;2.20;;;;;;;23.10;100.00;98239.09;15274763;19;20555;-52
2023/09/11 09:50:24;;;;;;;11.32;2.10;;;;;;;23.43;100.00;98240.22;15273388;19;20017;-53
2023/09/11 09:55:52;;;;;;;9.90;1.95;;;;;;;23.66;100.00;98230.13;15277891;19;20014;-51
2023/09/11 10:01:20;;;;;;;5.65;1.85;;;;;;;23.87;100.00;98220.25;15261798;19;20020;-55
2023/09/11 10:06:56;;;;;;;9.70;1.90;;;;;;;24.22;100.00;98223.81;15289658;19;20027;-52
2023/09/11 10:12:23;;;;;;;3.17;1.50;;;;;;;24.43;100.00;98211.09;15271817;19;20021;-50
2023/09/11 10:17:48;;;;;;;2.13;1.40;;;;;;;24.56;100.00;98202.44;15270854;19;20607;-53
2023/09/11 10:23:14;;;;;;;2.83;1.52;;;;;;;24.74;100.00;98200.47;15267965;19;20022;-53
2023/09/11 10:28:47;;;;;;;4.15;1.60;;;;;;;24.91;100.00;98190.16;15275818;19;20020;-55
2023/09/11 10:34:11;;;;;;;1.90;1.40;;;;;;;25.14;100.00;98190.91;15255605;19;20025;-55
2023/09/11 10:39:40;;;;;;;1.85;1.52;;;;;;;25.31;100.00;98189.97;15269290;19;20030;-53
2023/09/11 10:45:08;;;;;;;5.47;1.70;;;;;;;25.51;100.00;98190.13;15272483;19;20067;-54
2023/09/11 10:50:39;;;;;;;2.33;1.58;;;;;;;25.63;98.07;98184.44;15270979;19;20018;-55
2023/09/11 10:56:05;;;;;;;1.92;1.40;;;;;;;25.75;100.00;98173.19;15272485;19;20015;-53
2023/09/11 11:01:34;;;;;;;3.20;1.75;;;;;;;25.91;95.44;98170.53;15268533;19;20011;-53
2023/09/11 11:07:03;;;;;;;2.00;1.30;;;;;;;26.12;90.42;98168.69;15256630;19;20046;-55
2023/09/11 11:12:35;;;;;;;3.95;1.33;;;;;;;26.22;88.54;98160.50;15268460;19;20070;-54
2023/09/11 11:18:19;;;;;;;9.10;1.75;;;;;;;26.45;80.38;98158.34;15266339;19;20030;-52
2023/09/11 11:23:56;;;;;;;2.67;1.40;;;;;;;26.62;72.68;98149.81;15260527;19;20029;-54
2023/09/11 11:29:20;;;;;;;3.53;1.60;;;;;;;26.69;74.70;98152.31;15268791;19;20018;-54
2023/09/11 11:34:48;;;;;;;1.35;1.23;;;;;;;26.84;68.00;98152.34;15266333;19;20019;-57
2023/09/11 11:40:15;;;;;;;4.50;1.45;;;;;;;26.92;70.39;98159.28;15257913;19;20018;-52
2023/09/11 11:45:44;;;;;;;16.77;1.65;;;;;;;27.03;63.41;98152.63;15269065;19;20406;-54
2023/09/11 11:51:11;;;;;;;3.90;1.48;;;;;;;27.13;67.47;98143.53;15266774;19;20372;-56
2023/09/11 11:56:36;;;;;;;6.00;1.30;;;;;;;27.31;62.02;98142.13;15269017;19;20514;-57
2023/09/11 12:02:00;;;;;;;5.15;1.45;;;;;;;27.56;59.74;98143.25;15263480;19;20017;-57
2023/09/11 12:07:28;;;;;;;5.32;1.45;;;;;;;27.64;57.84;98145.44;15267718;19;20022;-52
2023/09/11 12:12:55;;;;;;;14.32;1.70;;;;;;;27.74;58.50;98152.03;15263251;19;20018;-56
2023/09/11 12:18:20;;;;;;;2.15;1.23;;;;;;;27.79;55.50;98146.50;15272443;19;20383;-57
2023/09/11 12:23:50;;;;;;;8.55;1.67;;;;;;;27.93;54.79;98141.19;15264516;19;20534;-56
2023/09/11 12:29:16;;;;;;;3.58;1.30;;;;;;;28.05;54.40;98141.69;15258049;19;20011;-54
2023/09/11 12:34:52;;;;;;;11.25;1.33;;;;;;;28.23;51.84;98148.56;15262667;19;21454;-54
2023/09/11 12:40:21;;;;;;;5.20;1.40;;;;;;;28.33;52.21;98139.38;15254272;19;20640;-57
2023/09/11 12:45:46;;;;;;;7.03;1.27;;;;;;;28.52;54.99;98125.69;15267400;19;20054;-57
2023/09/11 12:51:11;;;;;;;5.40;1.25;;;;;;;28.61;53.69;98137.00;15279304;19;20306;-57
2023/09/11 12:56:39;;;;;;;3.00;1.27;;;;;;;28.77;54.44;98123.88;15281080;19;20684;-56
2023/09/11 13:02:06;;;;;;;6.43;1.45;;;;;;;29.02;53.05;98125.66;15273799;19;20362;-56
2023/09/11 13:07:30;;;;;;;3.08;1.10;;;;;;;29.05;53.15;98121.44;15279915;19;20018;-57
2023/09/11 13:12:58;;;;;;;6.13;1.20;;;;;;;29.05;50.07;98129.78;15267948;19;20021;-55
2023/09/11 13:18:24;;;;;;;4.07;1.30;;;;;;;29.52;52.25;98111.59;15279495;19;20025;-55
2023/09/11 13:23:49;;;;;;;4.20;1.20;;;;;;;29.60;51.45;98106.50;14764116;19;10000384;-56
2023/09/11 13:29:16;;;;;;;6.88;1.40;;;;;;;29.65;48.98;98100.91;15276720;19;20041;-54
2023/09/11 13:34:41;;;;;;;2.60;1.25;;;;;;;29.68;48.18;98101.16;15278087;19;20029;-58
2023/09/11 13:40:06;;;;;;;4.20;1.25;;;;;;;29.76;49.76;98087.72;15275024;19;20021;-54
2023/09/11 13:45:34;;;;;;;4.95;1.30;;;;;;;29.80;47.37;98089.66;15267216;19;20026;-57
2023/09/11 13:50:58;;;;;;;5.47;1.33;;;;;;;29.84;49.70;98081.53;15274575;19;20045;-55
2023/09/11 13:56:24;;;;;;;6.55;1.40;;;;;;;30.16;47.26;98082.00;15272716;19;20022;-53
2023/09/11 14:01:52;;;;;;;7.18;1.17;;;;;;;30.65;49.32;98082.69;15271756;19;20340;-56
2023/09/11 14:07:21;;;;;;;4.53;1.10;;;;;;;30.39;47.01;98080.28;15275796;19;20018;-58
2023/09/11 14:12:45;;;;;;;6.35;1.20;;;;;;;30.38;47.72;98076.69;15270052;19;20035;-56
2023/09/11 14:18:13;;;;;;;5.70;1.25;;;;;;;30.75;46.58;98072.22;15261017;19;20053;-53
2023/09/11 14:23:37;;;;;;;5.43;1.50;;;;;;;31.28;47.91;98059.09;15267786;19;20082;-54
2023/09/11 14:29:03;;;;;;;6.25;1.40;;;;;;;31.41;45.01;98062.22;15274047;19;20427;-57
2023/09/11 14:34:30;;;;;;;3.30;1.10;;;;;;;31.55;44.49;98062.22;15276212;19;20082;-54
2023/09/11 14:39:55;;;;;;;3.33;1.10;;;;;;;31.51;42.95;98059.22;15271525;19;20045;-57
2023/09/11 14:45:19;;;;;;;4.10;1.20;;;;;;;31.20;42.23;98054.25;15273152;19;20380;-57
2023/09/11 14:50:47;;;;;;;2.97;1.10;;;;;;;31.42;41.56;98044.38;15256226;19;21087;-53
2023/09/11 14:56:12;;;;;;;2.28;1.00;;;;;;;31.87;42.80;98038.22;15271780;19;20022;-55
2023/09/11 15:01:37;;;;;;;3.58;1.10;;;;;;;31.84;41.46;98039.63;15265643;19;20018;-57
2023/09/11 15:07:04;;;;;;;3.22;1.20;;;;;;;32.20;41.23;98030.50;15270128;19;20042;-52
2023/09/11 15:12:30;;;;;;;5.85;1.20;;;;;;;32.43;39.88;98028.59;15266513;19;20014;-57
2023/09/11 15:17:54;;;;;;;1.65;0.90;;;;;;;32.72;40.99;98029.28;15270380;19;20471;-55
2023/09/11 15:23:22;;;;;;;4.60;1.20;;;;;;;32.97;39.39;98024.22;15250190;19;20485;-55
2023/09/11 15:28:47;;;;;;;4.78;1.00;;;;;;;32.87;39.06;98034.50;15268174;19;20029;-51
2023/09/11 15:34:13;;;;;;;2.60;1.10;;;;;;;33.03;38.62;98028.53;15267956;19;20998;-55
2023/09/11 15:39:40;;;;;;;2.85;0.90;;;;;;;32.60;39.91;98029.03;15268010;19;20650;-53
2023/09/11 15:45:06;;;;;;;2.97;1.00;;;;;;;32.34;39.48;98029.66;15267733;19;20082;-56
2023/09/11 15:50:37;;;;;;;3.85;1.10;;;;;;;32.16;39.85;98028.66;15266285;19;20352;-52
2023/09/11 15:56:06;;;;;;;4.03;1.00;;;;;;;32.27;39.09;98028.16;15260416;19;20011;-55
2023/09/11 16:01:30;;;;;;;3.78;1.10;;;;;;;32.23;39.58;98034.59;15264715;19;20651;-57
2023/09/11 16:06:55;;;;;;;2.33;1.05;;;;;;;31.98;39.26;98034.06;15269519;19;20022;-55
2023/09/11 16:12:22;;;;;;;3.97;1.10;;;;;;;32.13;39.35;98030.91;15263909;19;20026;-55
2023/09/11 16:17:48;;;;;;;3.65;1.17;;;;;;;32.17;39.74;98036.69;15266922;19;20090;-57
2023/09/11 16:23:14;;;;;;;4.68;1.17;;;;;;;32.13;39.97;98030.09;15276267;19;20021;-56
2023/09/11 16:28:48;;;;;;;2.38;1.10;;;;;;;32.09;39.61;98035.50;15269286;19;20045;-59
2023/09/11 16:34:13;;;;;;;2.67;1.20;;;;;;;31.82;39.96;98022.41;15277940;19;20070;-54
2023/09/11 16:39:39;;;;;;;3.38;1.00;;;;;;;31.52;41.06;98016.34;15281667;19;20041;-57
2023/09/11 16:45:07;;;;;;;6.00;1.13;;;;;;;31.47;41.23;98024.78;15280483;19;20014;-52
2023/09/11 16:50:33;;;;;;;6.00;1.10;;;;;;;31.31;42.18;98025.09;15278595;19;20027;-53
2023/09/11 16:56:05;;;;;;;19.95;3.33;;;;;;;31.26;41.87;98030.75;15275082;19;20441;-80
2023/09/11 17:01:34;;;;;;;7.35;1.85;;;;;;;31.15;42.00;98029.28;15280529;19;20031;-82
2023/09/11 17:06:59;;;;;;;11.55;2.80;;;;;;;30.81;43.00;98030.44;15284398;19;20022;-83
2023/09/11 17:12:25;;;;;;;17.25;4.20;;;;;;;30.47;43.02;98026.78;15291320;19;20015;-82
2023/09/11 17:17:53;;;;;;;17.85;3.40;;;;;;;30.06;43.33;98019.88;15288790;19;20023;-82
2023/09/11 17:23:17;;;;;;;16.80;2.80;;;;;;;29.59;44.54;98013.25;15289712;19;20014;-81
2023/09/11 17:28:43;;;;;;;9.13;1.30;;;;;;;29.17;44.97;98029.53;15290024;19;20029;-81
2023/09/11 17:34:10;;;;;;;3.60;1.10;;;;;;;28.76;46.22;98030.75;15280424;19;20345;-78
2023/09/11 17:39:36;;;;;;;6.30;1.52;;;;;;;28.50;47.94;98028.19;15295777;19;20077;-80
2023/09/11 17:45:00;;;;;;;10.60;1.60;;;;;;;28.29;47.80;98022.75;15295084;19;20034;-80
2023/09/11 17:50:28;;;;;;;5.47;1.58;;;;;;;28.05;50.15;98033.69;15298424;19;20042;-81
2023/09/11 17:55:52;;;;;;;9.95;1.55;;;;;;;27.61;51.50;98040.81;15295056;19;20090;-79
2023/09/11 18:01:17;;;;;;;5.95;1.40;;;;;;;27.27;52.51;98041.47;15294826;19;20010;-79
2023/09/11 18:06:44;;;;;;;5.65;1.35;;;;;;;26.97;54.31;98047.88;15275585;19;20006;-78
2023/09/11 18:12:10;;;;;;;7.63;1.83;;;;;;;26.70;54.79;98049.78;15287916;19;20018;-78
2023/09/11 18:17:35;;;;;;;4.95;1.55;;;;;;;26.46;56.58;98053.09;15280007;19;20015;-80
2023/09/11 18:23:03;;;;;;;3.90;1.35;;;;;;;26.15;56.37;98054.97;15280095;19;20081;-83
2023/09/11 18:28:30;;;;;;;3.22;1.40;;;;;;;25.89;56.94;98054.06;15285373;19;20038;-82
2023/09/11 18:33:56;;;;;;;6.22;1.33;;;;;;;25.67;57.20;98061.41;15282005;19;20025;-81
2023/09/11 18:39:24;;;;;;;3.42;1.30;;;;;;;25.49;58.69;98062.69;15277892;19;20014;-81
2023/09/11 18:44:49;;;;;;;5.97;1.50;;;;;;;25.35;58.35;98064.25;15277454;19;20361;-80
2023/09/11 18:50:14;;;;;;;6.30;1.30;;;;;;;25.22;59.67;98071.91;15284612;19;20037;-82
2023/09/11 18:55:48;;;;;;;5.57;1.50;;;;;;;25.02;61.23;98074.50;15281548;19;20025;-80
2023/09/11 19:01:12;;;;;;;5.32;1.60;;;;;;;24.79;64.92;98073.78;15290163;19;20054;-79
2023/09/11 19:06:37;;;;;;;4.85;1.70;;;;;;;24.55;70.14;98073.28;15271946;19;20015;-83
2023/09/11 19:12:04;;;;;;;6.93;1.58;;;;;;;24.31;78.26;98074.44;15273942;19;20031;-82
2023/09/11 19:17:29;;;;;;;5.85;1.73;;;;;;;24.12;83.14;98071.19;15279753;19;20078;-82
2023/09/11 19:22:53;;;;;;;5.25;1.65;;;;;;;23.96;87.54;98074.88;15280085;19;20014;-83
2023/09/11 19:28:21;;;;;;;7.07;1.73;;;;;;;23.74;89.04;98074.84;15284687;19;20070;-81
2023/09/11 19:33:47;;;;;;;3.08;1.60;;;;;;;23.54;90.34;98079.00;15280618;19;20014;-82
2023/09/11 19:39:12;;;;;;;5.07;1.63;;;;;;;23.37;90.74;98079.88;15274378;19;20003;-82
2023/09/11 19:44:39;;;;;;;7.00;1.73;;;;;;;23.21;93.46;98078.81;15277023;19;20070;-81
2023/09/11 19:50:04;;;;;;;4.68;1.65;;;;;;;23.05;94.21;98085.16;15283377;19;20042;-83
2023/09/11 19:55:36;;;;;;;6.32;1.75;;;;;;;22.90;95.76;98083.81;15292931;19;20781;-80
2023/09/11 20:01:03;;;;;;;5.05;1.50;;;;;;;22.79;97.99;98087.50;15313554;19;20088;-80
2023/09/11 20:06:28;;;;;;;3.65;1.58;;;;;;;22.68;98.42;98080.97;15306926;19;20953;-82
2023/09/11 20:11:55;;;;;;;5.00;1.48;;;;;;;22.58;100.00;98081.63;15304616;19;20011;-80
2023/09/11 20:17:23;;;;;;;4.38;1.70;;;;;;;22.45;100.00;98077.31;15304780;19;20025;-80
2023/09/11 20:22:47;;;;;;;5.85;1.75;;;;;;;22.32;100.00;98080.31;15309648;19;20017;-80
2023/09/11 20:28:13;;;;;;;3.83;1.45;;;;;;;22.21;100.00;98075.72;15307310;19;20009;-80
2023/09/11 20:33:40;;;;;;;5.70;1.77;;;;;;;22.08;100.00;98065.88;15291144;19;20085;-79
2023/09/11 20:39:05;;;;;;;3.65;1.77;;;;;;;21.89;100.00;98068.00;15313426;19;20501;-80
2023/09/11 20:44:29;;;;;;;5.60;1.80;;;;;;;21.73;100.00;98064.91;15305354;19;20054;-80
2023/09/11 20:49:58;;;;;;;5.63;1.80;;;;;;;21.61;100.00;98067.72;15313198;19;20011;-79
2023/09/11 20:55:22;;;;;;;4.57;1.58;;;;;;;21.58;100.00;98073.63;15325837;19;20028;-80
2023/09/11 21:00:47;;;;;;;7.47;1.80;;;;;;;21.52;100.00;98077.34;15378399;19;20034;-79
2023/09/11 21:06:14;;;;;;;5.53;1.92;;;;;;;21.42;100.00;98079.84;15293545;19;20053;-80
2023/09/11 21:11:39;;;;;;;7.07;1.88;;;;;;;21.31;100.00;98076.06;15283445;19;20018;-79
2023/09/11 21:17:05;;;;;;;3.40;1.60;;;;;;;21.21;100.00;98077.50;15269993;19;20046;-80
2023/09/11 21:22:32;;;;;;;4.05;1.70;;;;;;;21.08;100.00;98073.09;15280867;19;20018;-80
2023/09/11 21:27:57;;;;;;;4.75;1.70;;;;;;;21.03;100.00;98066.66;15279440;19;20479;-80
2023/09/11 21:33:21;;;;;;;3.80;1.67;;;;;;;20.99;100.00;98070.97;15284864;19;20375;-80
2023/09/11 21:38:49;;;;;;;6.20;1.70;;;;;;;20.94;100.00;98063.44;15284479;19;20530;-83
2023/09/11 21:44:14;;;;;;;4.85;1.70;;;;;;;20.90;100.00;98057.59;15283789;19;20014;-81
2023/09/11 21:49:40;;;;;;;6.57;1.75;;;;;;;20.90;100.00;98057.59;15275371;19;20002;-81
2023/09/11 21:55:07;;;;;;;4.13;1.80;;;;;;;20.89;100.00;98055.94;15283266;19;20046;-79
2023/09/11 22:00:31;;;;;;;3.08;1.67;;;;;;;20.88;100.00;98054.28;15286717;19;20025;-79
2023/09/11 22:05:57;;;;;;;5.38;1.77;;;;;;;20.86;100.00;98055.59;15283155;19;20019;-78
2023/09/11 22:11:25;;;;;;;5.28;1.75;;;;;;;20.83;100.00;98056.06;15284619;19;20093;-81
2023/09/11 22:16:49;;;;;;;4.20;1.63;;;;;;;20.77;100.00;98046.88;15281099;19;20028;-80
2023/09/11 22:22:13;;;;;;;5.93;1.90;;;;;;;20.69;100.00;98044.47;15275070;19;20055;-79
2023/09/11 22:27:41;;;;;;;5.88;1.85;;;;;;;20.63;100.00;98041.63;15281699;19;20035;-79
2023/09/11 22:33:07;;;;;;;7.57;2.10;;;;;;;20.56;100.00;98043.63;15285107;19;20029;-79
2023/09/11 22:38:32;;;;;;;5.97;2.15;;;;;;;20.52;100.00;98031.47;15282304;19;20015;-79
2023/09/11 22:43:59;;;;;;;4.75;1.80;;;;;;;20.48;100.00;98033.84;15281586;19;20377;-81
2023/09/11 22:49:24;;;;;;;6.25;2.20;;;;;;;20.47;100.00;98040.38;15281536;19;20038;-81
2023/09/11 22:54:51;;;;;;;5.55;1.80;;;;;;;20.45;100.00;98028.03;15270724;19;20060;-79
2023/09/11 23:00:20;;;;;;;9.63;2.20;;;;;;;20.40;100.00;98034.19;15282532;19;20043;-79
2023/09/11 23:05:46;;;;;;;3.60;1.90;;;;;;;20.38;100.00;98024.56;15277016;19;20011;-80
2023/09/11 23:11:10;;;;;;;5.47;1.90;;;;;;;20.35;100.00;98035.97;15283934;19;20418;-80
2023/09/11 23:16:38;;;;;;;6.25;2.00;;;;;;;20.29;100.00;98030.34;15278635;19;20431;-80
2023/09/11 23:22:03;;;;;;;4.38;2.10;;;;;;;20.25;100.00;98044.75;15281133;19;20536;-80
2023/09/11 23:27:30;;;;;;;6.22;1.90;;;;;;;20.17;100.00;98041.28;15265924;19;20035;-79
2023/09/11 23:32:57;;;;;;;5.88;2.05;;;;;;;20.08;100.00;98036.38;15277571;19;20023;-79
2023/09/11 23:38:22;;;;;;;3.83;1.98;;;;;;;20.00;100.00;98043.00;15280554;19;20026;-80
2023/09/11 23:43:46;;;;;;;6.07;2.20;;;;;;;19.92;100.00;98049.63;15281016;19;20086;-80
2023/09/11 23:49:13;;;;;;;5.38;2.00;;;;;;;19.81;100.00;98050.38;15278701;19;20021;-81
2023/09/11 23:54:45;;;;;;;5.05;2.10;;;;;;;19.71;100.00;98051.75;15280550;19;20043;-79
